createdAt,value
2022-12-18T05:04:33.972Z,86.13
2022-12-18T05:05:33.776Z,86.46
2022-12-18T05:06:33.670Z,86.88
2022-12-18T05:07:33.602Z,88.38
2022-12-18T05:08:33.597Z,88.34
2022-12-18T05:09:33.587Z,88.23
2022-12-18T05:10:37.957Z,88.23
2022-12-18T05:11:34.575Z,88.13
2022-12-18T05:12:33.556Z,87.59
2022-12-18T05:13:33.587Z,88.34
2022-12-18T05:14:33.584Z,88.13
2022-12-18T05:15:33.571Z,88.13
2022-12-18T05:16:33.620Z,87.27
2022-12-18T05:17:33.531Z,87.06
2022-12-18T05:18:33.567Z,86.31
2022-12-18T05:19:33.568Z,85.88
2022-12-18T05:20:33.595Z,86.20
2022-12-18T05:21:33.501Z,87.06
2022-12-18T05:22:33.529Z,88.23
2022-12-18T05:23:33.503Z,88.38
2022-12-18T05:24:33.489Z,86.85
2022-12-18T05:25:33.518Z,86.52
2022-12-18T05:26:33.516Z,86.99
2022-12-18T05:27:33.503Z,88.28
2022-12-18T05:28:33.513Z,88.28
2022-12-18T05:29:33.455Z,88.49
2022-12-18T05:30:33.450Z,88.59
2022-12-18T05:31:38.889Z,89.13
2022-12-18T05:32:36.549Z,89.13
2022-12-18T05:33:33.743Z,89.41
2022-12-18T05:34:33.461Z,90.05
2022-12-18T05:35:33.413Z,89.90
2022-12-18T05:36:33.508Z,88.62
2022-12-18T05:37:36.892Z,88.20
2022-12-18T05:38:34.420Z,87.55
2022-12-18T05:39:33.551Z,87.16
2022-12-18T05:40:33.497Z,87.49
2022-12-18T05:41:33.397Z,87.16
2022-12-18T05:42:33.390Z,87.16
2022-12-18T05:43:33.447Z,86.85
2022-12-18T05:44:33.372Z,86.63
2022-12-18T05:45:33.362Z,86.10
2022-12-18T05:46:33.414Z,86.10
2022-12-18T05:47:33.372Z,86.31
2022-12-18T05:48:33.348Z,86.63
2022-12-18T05:49:33.359Z,86.38
2022-12-18T05:50:33.357Z,86.10
2022-12-18T05:51:33.353Z,86.06
2022-12-18T05:52:33.410Z,85.99
2022-12-18T05:53:33.330Z,86.10
2022-12-18T05:54:33.346Z,86.13
2022-12-18T05:55:33.302Z,86.20
2022-12-18T05:56:33.343Z,86.74
2022-12-18T05:57:33.305Z,86.63
2022-12-18T05:58:33.297Z,86.95
2022-12-18T05:59:33.298Z,87.06
2022-12-18T06:00:33.273Z,87.38
2022-12-18T06:01:33.305Z,88.23
2022-12-18T06:02:33.360Z,88.13
2022-12-18T06:03:34.153Z,88.23
2022-12-18T06:04:34.292Z,88.02
2022-12-18T06:05:33.265Z,88.45
2022-12-18T06:06:33.273Z,89.31
2022-12-18T06:07:33.273Z,89.62
2022-12-18T06:08:33.346Z,89.95
2022-12-18T06:09:33.262Z,89.09
2022-12-18T06:10:33.262Z,88.98
2022-12-18T06:11:33.225Z,89.20
2022-12-18T06:12:33.243Z,89.84
2022-12-18T06:13:33.881Z,90.59
2022-12-18T06:14:33.224Z,90.66
2022-12-18T06:15:33.195Z,91.08
2022-12-18T06:16:33.292Z,90.76
2022-12-18T06:17:33.229Z,89.59
2022-12-18T06:18:33.228Z,89.90
2022-12-18T06:19:33.222Z,89.84
2022-12-18T06:20:33.760Z,90.23
2022-12-18T06:21:34.168Z,90.23
2022-12-18T06:22:33.168Z,90.66
2022-12-18T06:23:33.165Z,91.34
2022-12-18T06:24:33.220Z,91.55
2022-12-18T06:25:33.137Z,91.55
2022-12-18T06:26:33.138Z,91.23
2022-12-18T06:27:33.130Z,91.23
2022-12-18T06:28:33.174Z,91.12
2022-12-18T06:29:33.126Z,91.12
2022-12-18T06:30:33.120Z,91.44
2022-12-18T06:31:33.197Z,91.02
2022-12-18T06:32:33.102Z,91.16
2022-12-18T06:33:33.117Z,90.73
2022-12-18T06:34:33.123Z,90.69
2022-12-18T06:35:33.114Z,91.44
2022-12-18T06:36:33.106Z,91.77
2022-12-18T06:37:33.132Z,91.87
2022-12-18T06:38:33.127Z,91.23
2022-12-18T06:39:33.053Z,89.95
2022-12-18T06:40:33.138Z,90.05
2022-12-18T06:41:33.097Z,89.52
2022-12-18T06:42:33.097Z,89.52
2022-12-18T06:43:33.079Z,89.09
2022-12-18T06:44:33.094Z,89.31
2022-12-18T06:45:33.058Z,89.09
2022-12-18T06:46:33.029Z,89.09
2022-12-18T06:47:33.068Z,88.13
2022-12-18T06:48:33.051Z,86.85
2022-12-18T06:49:33.029Z,86.59
2022-12-18T06:50:33.056Z,86.06
2022-12-18T06:51:32.997Z,85.46
2022-12-18T06:52:32.986Z,85.13
2022-12-18T06:53:33.024Z,84.70
2022-12-18T06:54:33.031Z,85.38
2022-12-18T06:55:32.964Z,86.10
2022-12-18T06:56:33.077Z,85.17
2022-12-18T06:57:33.013Z,85.56
2022-12-18T06:58:32.943Z,84.64
2022-12-18T06:59:33.004Z,85.17
2022-12-18T07:00:32.969Z,85.24
2022-12-18T07:01:33.085Z,85.35
